Time;durP1;ratioP1;P1;durP2;ratioP2;P2;SDS_P1;SDS_P2;PMS_P1;PMS_P2;Temp;Humidity;BMP_temperature;BMP_pressure;BME280_temperature;BME280_humidity;BME280_pressure;Samples;Min_cycle;Max_cycle;Signal;HPM_P1;HPM_P2
2023/04/03 00:00:02;;;;;;;3.10;1.50;;;;;;;0.99;68.15;101109.95;103503;280;175929;-70
2023/04/03 00:02:37;;;;;;;5.20;1.70;;;;;;;0.93;68.54;101112.10;103649;280;38207;-73
2023/04/03 00:05:12;;;;;;;2.50;1.40;;;;;;;0.87;68.30;101113.21;103477;280;38321;-72
2023/04/03 00:07:46;;;;;;;3.10;1.40;;;;;;;0.79;68.21;101115.69;103643;280;39803;-71
2023/04/03 00:10:20;;;;;;;3.80;1.80;;;;;;;0.72;68.22;101119.89;103640;279;38251;-71
2023/04/03 00:12:54;;;;;;;4.40;1.80;;;;;;;0.68;68.42;101118.63;103666;279;40143;-70
2023/04/03 00:15:29;;;;;;;3.50;1.40;;;;;;;0.64;68.50;101123.35;103415;279;175448;-70
2023/04/03 00:18:03;;;;;;;3.20;1.30;;;;;;;0.58;68.70;101118.98;103636;279;39378;-73
2023/04/03 00:20:37;;;;;;;2.90;1.20;;;;;;;0.54;68.41;101122.35;103544;279;38484;-71
2023/04/03 00:23:11;;;;;;;4.30;1.30;;;;;;;0.48;68.31;101122.45;103694;279;38477;-71
2023/04/03 00:25:45;;;;;;;2.10;1.30;;;;;;;0.43;68.25;101127.35;103673;279;38818;-71
2023/04/03 00:28:20;;;;;;;3.60;1.60;;;;;;;0.38;68.42;101127.61;103662;279;38247;-71
2023/04/03 00:30:55;;;;;;;3.30;1.60;;;;;;;0.33;68.32;101135.92;103654;279;39645;-72
2023/04/03 00:33:29;;;;;;;2.70;1.20;;;;;;;0.26;68.38;101133.77;103645;279;38835;-73
2023/04/03 00:36:08;;;;;;;3.60;1.30;;;;;;;0.19;68.26;101131.59;103703;279;39456;-72
2023/04/03 00:38:42;;;;;;;2.30;1.00;;;;;;;0.15;68.21;101134.27;103671;279;38752;-71
2023/04/03 00:41:16;;;;;;;2.50;1.20;;;;;;;0.14;68.10;101133.05;103669;272;39432;-73
2023/04/03 00:43:50;;;;;;;2.50;1.30;;;;;;;0.14;68.21;101133.75;103665;279;38443;-72
2023/04/03 00:46:24;;;;;;;3.50;1.30;;;;;;;0.14;67.94;101138.89;103664;279;38361;-74
2023/04/03 00:48:58;;;;;;;2.90;1.80;;;;;;;0.11;67.99;101140.55;103665;279;39530;-73
2023/04/03 00:51:32;;;;;;;2.20;1.00;;;;;;;0.08;68.13;101136.73;103663;279;38503;-70
2023/04/03 00:54:08;;;;;;;3.30;1.20;;;;;;;0.03;68.20;101138.71;103683;279;38545;-71
2023/04/03 00:56:41;;;;;;;2.70;1.70;;;;;;;-0.01;68.24;101141.38;103677;279;37911;-69
2023/04/03 00:59:17;;;;;;;3.20;1.40;;;;;;;-0.07;67.94;101143.33;103640;279;40292;-71
2023/04/03 01:01:51;;;;;;;2.30;1.10;;;;;;;-0.14;67.73;101145.45;103645;279;40595;-72
2023/04/03 01:04:32;;;;;;;4.60;1.40;;;;;;;-0.20;67.92;101147.05;103679;279;38479;-72
2023/04/03 01:07:08;;;;;;;3.40;1.10;;;;;;;-0.24;68.10;101145.94;103531;279;175935;-70
2023/04/03 01:09:42;;;;;;;1.70;1.00;;;;;;;-0.25;68.10;101151.58;103543;279;38752;-71
2023/04/03 01:12:21;;;;;;;1.80;1.10;;;;;;;-0.27;68.05;101154.98;103659;279;39900;-72
2023/04/03 01:14:56;;;;;;;2.80;1.10;;;;;;;-0.28;68.22;101159.40;103618;279;38601;-74
2023/04/03 01:17:36;;;;;;;3.50;1.10;;;;;;;-0.31;68.20;101163.29;103677;279;39205;-69
2023/04/03 01:21:04;;;;;;;3.30;1.50;;;;;;;-0.33;68.39;101166.33;103665;279;39635;-69
2023/04/03 01:24:01;;;;;;;2.20;1.40;;;;;;;-0.41;68.30;101172.89;103695;279;38321;-74
2023/04/03 01:26:35;;;;;;;3.50;1.20;;;;;;;-0.46;68.22;101177.22;103664;279;39859;-74
2023/04/03 01:29:09;;;;;;;4.00;1.10;;;;;;;-0.50;68.10;101180.92;103605;279;38311;-74
2023/04/03 01:31:53;;;;;;;2.50;1.20;;;;;;;-0.55;68.15;101182.38;103659;279;39502;-72
2023/04/03 01:34:27;;;;;;;1.90;1.10;;;;;;;-0.58;67.89;101183.67;103021;280;686964;-74
2023/04/03 01:37:01;;;;;;;2.20;1.30;;;;;;;-0.58;68.12;101184.37;103699;279;38896;-74
2023/04/03 01:39:35;;;;;;;3.00;1.30;;;;;;;-0.59;68.12;101188.29;103666;279;38308;-72
2023/04/03 01:42:10;;;;;;;3.40;1.20;;;;;;;-0.59;68.05;101192.90;103696;279;38252;-70
2023/04/03 01:44:44;;;;;;;4.30;1.10;;;;;;;-0.61;68.14;101189.10;103680;279;39498;-72
2023/04/03 01:47:18;;;;;;;4.10;1.20;;;;;;;-0.64;68.24;101194.52;103715;279;38460;-72
2023/04/03 01:49:52;;;;;;;3.10;1.10;;;;;;;-0.68;68.23;101192.72;103676;279;38492;-73
2023/04/03 01:52:26;;;;;;;2.60;1.50;;;;;;;-0.71;68.25;101196.42;103711;279;38534;-70
2023/04/03 01:55:00;;;;;;;2.50;1.50;;;;;;;-0.75;68.30;101193.78;103650;279;40252;-70
2023/04/03 01:57:34;;;;;;;2.30;1.10;;;;;;;-0.78;68.42;101197.30;103643;279;38315;-72
2023/04/03 02:00:11;;;;;;;3.70;1.30;;;;;;;-0.82;68.48;101199.11;103645;279;39423;-71
2023/04/03 02:02:45;;;;;;;2.00;0.90;;;;;;;-0.84;68.46;101203.34;103649;279;39184;-71
2023/04/03 02:05:19;;;;;;;3.30;1.20;;;;;;;-0.85;68.38;101204.34;103701;279;39428;-70
2023/04/03 02:07:53;;;;;;;3.40;1.60;;;;;;;-0.85;68.48;101208.63;103714;279;38243;-72
2023/04/03 02:10:27;;;;;;;3.20;1.20;;;;;;;-0.86;68.53;101210.14;103658;279;38948;-72
2023/04/03 02:13:01;;;;;;;4.60;1.20;;;;;;;-0.87;68.67;101212.00;103664;279;38872;-68
2023/04/03 02:15:38;;;;;;;2.30;1.40;;;;;;;-0.89;68.60;101213.16;103647;279;39445;-71
2023/04/03 02:18:12;;;;;;;3.00;1.10;;;;;;;-0.93;68.54;101217.20;103690;279;38863;-74
2023/04/03 02:20:47;;;;;;;3.30;1.30;;;;;;;-0.96;68.56;101218.31;103504;279;38740;-74
2023/04/03 02:23:22;;;;;;;2.50;1.20;;;;;;;-0.99;68.70;101219.45;103663;279;38231;-74
2023/04/03 02:26:02;;;;;;;2.40;1.40;;;;;;;-1.04;68.71;101220.38;103660;279;38270;-72
2023/04/03 02:28:36;;;;;;;2.40;1.30;;;;;;;-1.07;68.91;101222.53;103670;279;40014;-70
2023/04/03 02:31:10;;;;;;;2.40;1.10;;;;;;;-1.09;68.83;101223.00;103689;279;39621;-70
2023/04/03 02:33:44;;;;;;;2.40;1.10;;;;;;;-1.09;68.95;101224.54;103638;279;38584;-71
2023/04/03 02:36:18;;;;;;;2.80;1.30;;;;;;;-1.08;68.78;101226.44;103671;279;38718;-72
2023/04/03 02:38:52;;;;;;;4.80;1.20;;;;;;;-1.09;68.86;101227.96;103679;279;38640;-70
2023/04/03 02:41:33;;;;;;;2.90;1.60;;;;;;;-1.10;68.83;101230.85;103641;279;38749;-70
2023/04/03 02:44:07;;;;;;;4.20;1.30;;;;;;;-1.11;68.88;101232.36;103685;279;38851;-71
2023/04/03 02:46:41;;;;;;;2.80;1.20;;;;;;;-1.15;68.97;101236.73;103677;279;39537;-70
2023/04/03 02:49:15;;;;;;;2.10;1.20;;;;;;;-1.21;69.00;101239.83;103671;279;38419;-69
2023/04/03 02:51:50;;;;;;;4.20;1.30;;;;;;;-1.27;68.97;101245.34;103672;279;39458;-71
2023/04/03 02:54:27;;;;;;;2.80;1.10;;;;;;;-1.33;69.13;101250.00;103656;279;38711;-70
2023/04/03 02:57:01;;;;;;;2.30;1.20;;;;;;;-1.36;69.14;101248.89;103671;279;38423;-71
2023/04/03 02:59:35;;;;;;;2.80;1.10;;;;;;;-1.37;69.33;101248.88;103682;279;38278;-71
2023/04/03 03:02:09;;;;;;;2.70;1.20;;;;;;;-1.38;69.37;101247.65;103687;279;38859;-71
2023/04/03 03:04:43;;;;;;;4.30;1.10;;;;;;;-1.38;69.59;101248.33;103641;279;38747;-70
2023/04/03 03:07:17;;;;;;;3.60;1.10;;;;;;;-1.39;69.55;101246.59;103712;279;39814;-70
2023/04/03 03:09:51;;;;;;;2.80;1.20;;;;;;;-1.43;69.49;101249.90;103678;279;38580;-71
2023/04/03 03:12:25;;;;;;;2.40;1.40;;;;;;;-1.48;69.72;101247.39;103686;279;38348;-70
2023/04/03 03:15:00;;;;;;;2.70;1.30;;;;;;;-1.53;69.73;101247.79;103644;279;38394;-71
2023/04/03 03:17:35;;;;;;;1.60;1.10;;;;;;;-1.58;69.88;101239.95;103725;279;38434;-69
2023/04/03 03:20:13;;;;;;;2.60;1.00;;;;;;;-1.62;69.96;101245.16;103662;279;40218;-68
2023/04/03 03:22:48;;;;;;;2.50;1.10;;;;;;;-1.64;69.99;101243.91;103710;279;38401;-72
2023/04/03 03:25:22;;;;;;;2.20;1.30;;;;;;;-1.66;70.15;101245.04;103661;279;38256;-72
2023/04/03 03:27:57;;;;;;;3.20;1.30;;;;;;;-1.69;70.28;101244.13;103724;279;38417;-71
2023/04/03 03:30:31;;;;;;;3.70;1.90;;;;;;;-1.73;70.51;101253.61;103685;279;39136;-73
2023/04/03 03:33:07;;;;;;;5.50;2.60;;;;;;;-1.76;70.63;101251.98;103698;279;38543;-71
2023/04/03 03:35:41;;;;;;;7.00;2.70;;;;;;;-1.80;70.59;101251.52;103675;279;38795;-70
2023/04/03 03:38:16;;;;;;;5.40;2.50;;;;;;;-1.85;70.79;101254.84;103675;279;38991;-71
2023/04/03 03:40:52;;;;;;;6.90;2.90;;;;;;;-1.89;70.84;101258.31;103667;279;38762;-70
2023/04/03 03:43:26;;;;;;;3.30;1.70;;;;;;;-1.94;70.96;101256.96;103673;279;39664;-69
2023/04/03 03:46:00;;;;;;;2.30;1.20;;;;;;;-1.94;71.02;101254.39;103688;279;39752;-71
2023/04/03 03:48:35;;;;;;;2.60;1.80;;;;;;;-1.94;71.13;101253.04;103693;279;39429;-73
2023/04/03 03:51:09;;;;;;;5.50;1.70;;;;;;;-1.93;71.29;101253.77;103478;279;39690;-73
2023/04/03 03:53:43;;;;;;;4.30;2.00;;;;;;;-1.94;71.17;101258.17;103670;279;38516;-71
2023/04/03 03:56:17;;;;;;;4.40;1.60;;;;;;;-1.96;71.34;101253.51;103628;279;38376;-69
2023/04/03 03:58:52;;;;;;;4.80;1.80;;;;;;;-2.00;71.35;101253.75;103692;279;39448;-70
2023/04/03 04:01:26;;;;;;;3.90;1.50;;;;;;;-2.04;71.59;101255.00;103660;279;38487;-71
2023/04/03 04:04:00;;;;;;;3.30;1.50;;;;;;;-2.09;71.77;101251.11;103658;279;39314;-71
2023/04/03 04:06:35;;;;;;;3.00;1.40;;;;;;;-2.11;71.86;101255.81;103677;279;39152;-71
2023/04/03 04:09:09;;;;;;;3.60;1.40;;;;;;;-2.12;71.93;101256.67;103645;279;38842;-72
2023/04/03 04:11:43;;;;;;;3.10;1.30;;;;;;;-2.11;72.14;101256.36;103687;279;38318;-71
2023/04/03 04:14:17;;;;;;;3.60;1.30;;;;;;;-2.10;72.07;101259.80;103658;279;38509;-68
2023/04/03 04:16:52;;;;;;;4.30;1.60;;;;;;;-2.09;72.18;101259.14;103010;279;920312;-69
2023/04/03 04:19:26;;;;;;;3.20;1.60;;;;;;;-2.10;72.20;101264.08;103641;279;39466;-71
2023/04/03 04:22:00;;;;;;;4.20;1.70;;;;;;;-2.09;72.21;101266.48;103672;279;38791;-70
2023/04/03 04:24:34;;;;;;;2.10;1.50;;;;;;;-2.11;72.25;101268.83;103671;279;38464;-69
2023/04/03 04:27:08;;;;;;;3.40;1.60;;;;;;;-2.11;72.25;101265.23;103707;279;40351;-73
2023/04/03 04:29:42;;;;;;;4.20;1.50;;;;;;;-2.08;72.32;101273.15;103671;279;38700;-71
2023/04/03 04:32:17;;;;;;;4.30;1.50;;;;;;;-2.05;72.40;101274.63;103689;279;38260;-70
2023/04/03 04:34:51;;;;;;;3.20;1.60;;;;;;;-2.00;72.42;101276.64;103655;279;38820;-70
2023/04/03 04:37:25;;;;;;;3.70;1.60;;;;;;;-1.97;72.35;101277.93;103664;279;38347;-68
2023/04/03 04:39:59;;;;;;;5.00;1.70;;;;;;;-1.93;72.37;101282.46;103673;279;38292;-70
2023/04/03 04:42:33;;;;;;;3.80;1.80;;;;;;;-1.91;72.29;101285.30;103627;279;38747;-71
2023/04/03 04:45:09;;;;;;;3.30;1.30;;;;;;;-1.88;72.20;101289.10;103655;279;38507;-71
2023/04/03 04:47:43;;;;;;;3.30;1.40;;;;;;;-1.85;72.03;101291.77;103747;279;38983;-70
2023/04/03 04:50:18;;;;;;;3.00;1.20;;;;;;;-1.78;72.11;101297.77;103650;279;38384;-71
2023/04/03 04:52:53;;;;;;;4.00;1.40;;;;;;;-1.54;72.00;101294.11;103586;279;176018;-69
2023/04/03 04:55:30;;;;;;;3.50;1.60;;;;;;;-1.00;72.23;101292.89;103682;279;38289;-70
2023/04/03 04:58:05;;;;;;;2.60;1.50;;;;;;;-0.60;71.17;101296.04;103723;279;38258;-71
2023/04/03 05:00:39;;;;;;;3.90;2.00;;;;;;;-0.28;70.05;101293.84;103687;279;38655;-68
2023/04/03 05:03:13;;;;;;;4.30;1.60;;;;;;;0.01;69.40;101298.70;103657;279;38234;-68
2023/04/03 05:05:52;;;;;;;3.80;1.60;;;;;;;0.26;68.14;101305.04;103598;279;176258;-68
2023/04/03 05:08:26;;;;;;;2.20;1.20;;;;;;;0.65;67.60;101303.16;103529;279;39752;-71
2023/04/03 05:11:01;;;;;;;2.20;1.30;;;;;;;0.84;66.62;101308.80;103675;279;38262;-73
2023/04/03 05:13:35;;;;;;;4.10;1.40;;;;;;;1.05;66.75;101307.95;103721;279;39528;-72
2023/04/03 05:16:09;;;;;;;4.80;2.00;;;;;;;1.30;65.59;101308.50;103730;279;38468;-71
2023/04/03 05:18:43;;;;;;;4.00;1.50;;;;;;;1.59;65.50;101307.53;103676;279;38526;-70
2023/04/03 05:21:18;;;;;;;3.00;1.50;;;;;;;2.24;66.35;101307.31;103686;279;38428;-70
2023/04/03 05:23:51;;;;;;;3.60;1.50;;;;;;;3.30;65.22;101304.80;103681;279;38244;-70
2023/04/03 05:26:26;;;;;;;3.50;1.30;;;;;;;4.38;62.03;101306.31;103642;279;39701;-69
2023/04/03 05:29:00;;;;;;;2.00;1.10;;;;;;;5.26;58.86;101307.95;103680;279;38287;-69
2023/04/03 05:31:34;;;;;;;4.00;1.30;;;;;;;5.46;55.51;101312.41;103683;279;38894;-73
2023/04/03 05:34:09;;;;;;;3.20;1.40;;;;;;;5.52;55.12;101316.38;103664;279;38806;-73
2023/04/03 05:36:42;;;;;;;2.30;1.30;;;;;;;6.19;54.38;101316.00;103559;279;175158;-72
2023/04/03 05:39:17;;;;;;;2.70;1.00;;;;;;;6.78;51.44;101316.17;103659;279;39689;-72
2023/04/03 05:41:51;;;;;;;4.10;1.50;;;;;;;7.23;49.71;101311.80;103705;279;38483;-70
2023/04/03 05:44:25;;;;;;;4.00;1.40;;;;;;;7.47;48.87;101316.95;103638;279;39403;-70
2023/04/03 05:47:02;;;;;;;2.80;1.40;;;;;;;7.28;47.05;101320.79;103731;279;39423;-73
2023/04/03 05:49:40;;;;;;;2.40;1.30;;;;;;;6.68;46.30;101328.02;103665;279;38573;-72
2023/04/03 05:52:22;;;;;;;3.70;1.30;;;;;;;6.03;46.64;101326.80;103696;279;38236;-70
2023/04/03 05:54:55;;;;;;;2.80;1.30;;;;;;;5.44;48.14;101330.92;103692;279;38917;-71
2023/04/03 05:57:29;;;;;;;2.50;1.10;;;;;;;4.95;49.42;101334.07;103689;279;39490;-71
2023/04/03 06:00:04;;;;;;;2.90;1.30;;;;;;;4.70;49.79;101336.27;103505;279;39545;-71
2023/04/03 06:02:38;;;;;;;3.20;1.20;;;;;;;4.96;49.79;101337.17;103704;279;38372;-72
2023/04/03 06:05:13;;;;;;;3.00;1.50;;;;;;;5.73;49.95;101330.88;103683;279;38296;-73
2023/04/03 06:07:49;;;;;;;2.40;1.20;;;;;;;6.81;50.54;101326.88;103693;279;38370;-71
2023/04/03 06:10:23;;;;;;;3.20;1.50;;;;;;;7.87;48.48;101324.85;103644;279;38247;-71
2023/04/03 06:12:58;;;;;;;2.60;1.20;;;;;;;8.42;45.04;101330.78;103633;279;39403;-72
2023/04/03 06:15:32;;;;;;;2.90;1.50;;;;;;;9.10;45.91;101327.15;103678;279;39713;-71
2023/04/03 06:18:06;;;;;;;2.60;1.70;;;;;;;10.13;44.43;101330.27;103664;279;39185;-75
2023/04/03 06:20:40;;;;;;;2.70;1.30;;;;;;;10.98;42.67;101326.98;103656;279;38439;-72
2023/04/03 06:23:14;;;;;;;2.00;1.40;;;;;;;11.72;41.85;101332.27;103720;279;38317;-74
2023/04/03 06:25:49;;;;;;;4.70;1.40;;;;;;;12.32;39.53;101334.58;103674;279;38231;-74
2023/04/03 06:28:26;;;;;;;3.90;1.80;;;;;;;12.60;38.45;101332.86;103667;279;39428;-73
2023/04/03 06:31:00;;;;;;;2.50;1.70;;;;;;;12.70;37.16;101336.06;103683;279;39674;-74
2023/04/03 06:33:34;;;;;;;2.50;1.40;;;;;;;12.63;36.12;101338.19;103733;279;38240;-72
2023/04/03 06:36:12;;;;;;;2.20;1.40;;;;;;;12.55;35.45;101343.86;103695;279;39126;-73
2023/04/03 06:38:47;;;;;;;3.00;1.70;;;;;;;12.57;35.46;101346.43;103704;279;38266;-75
2023/04/03 06:41:21;;;;;;;2.70;1.40;;;;;;;12.56;34.61;101345.59;103679;279;38268;-72
2023/04/03 06:43:57;;;;;;;3.10;1.60;;;;;;;12.47;35.25;101347.60;103690;279;38220;-74
2023/04/03 06:46:34;;;;;;;3.30;1.50;;;;;;;12.32;34.65;101351.38;103696;279;38379;-72
2023/04/03 06:49:12;;;;;;;4.50;1.90;;;;;;;11.91;34.69;101343.80;103699;279;39467;-73
2023/04/03 06:51:48;;;;;;;2.60;1.60;;;;;;;11.50;35.80;101352.05;103745;279;39402;-71
2023/04/03 06:54:25;;;;;;;3.00;1.50;;;;;;;11.36;36.38;101350.67;103604;279;175047;-71
2023/04/03 06:57:01;;;;;;;4.70;1.80;;;;;;;11.55;36.00;101354.20;103677;279;39993;-73
2023/04/03 06:59:36;;;;;;;3.20;1.30;;;;;;;11.64;35.82;101356.75;103699;279;39693;-75
2023/04/03 07:02:12;;;;;;;2.90;1.40;;;;;;;11.58;35.79;101363.02;103658;280;38887;-78
2023/04/03 07:04:51;;;;;;;4.70;1.50;;;;;;;11.86;35.02;101361.78;103708;279;38268;-73
2023/04/03 07:07:26;;;;;;;3.40;1.40;;;;;;;12.23;34.77;101362.83;103743;279;40092;-72
2023/04/03 07:10:01;;;;;;;3.10;1.50;;;;;;;12.26;33.27;101366.58;103724;279;38612;-74
2023/04/03 07:12:38;;;;;;;3.10;1.40;;;;;;;12.31;33.63;101369.95;103691;279;38441;-74
2023/04/03 07:15:18;;;;;;;2.70;1.40;;;;;;;12.54;33.64;101373.32;103667;280;39460;-73
2023/04/03 07:17:53;;;;;;;2.50;1.40;;;;;;;12.85;33.00;101370.76;103663;279;39879;-73
2023/04/03 07:20:28;;;;;;;3.60;2.00;;;;;;;13.06;32.44;101374.67;103619;279;38511;-74
2023/04/03 07:23:04;;;;;;;3.20;1.50;;;;;;;13.18;32.63;101370.05;103717;279;38401;-73
2023/04/03 07:25:42;;;;;;;3.00;1.40;;;;;;;13.32;32.32;101374.02;103505;279;38796;-74
2023/04/03 07:28:18;;;;;;;3.30;1.70;;;;;;;13.49;32.48;101368.89;103653;279;39450;-75
2023/04/03 07:31:03;;;;;;;2.40;1.60;;;;;;;13.53;31.18;101376.09;103538;280;40018;-74
2023/04/03 07:33:37;;;;;;;2.60;1.60;;;;;;;13.22;30.74;101382.03;103047;279;897357;-71
2023/04/03 07:36:18;;;;;;;2.80;1.40;;;;;;;13.13;31.39;101379.35;103744;279;38520;-74
2023/04/03 07:38:52;;;;;;;2.20;1.30;;;;;;;13.29;31.37;101383.73;103521;279;39654;-75
2023/04/03 07:41:27;;;;;;;2.60;1.50;;;;;;;13.64;31.11;101375.55;103523;281;38983;-71
2023/04/03 07:44:02;;;;;;;2.30;1.50;;;;;;;13.84;30.63;101378.38;103707;279;38484;-74
2023/04/03 07:46:37;;;;;;;3.10;1.80;;;;;;;14.19;30.76;101383.04;103479;279;38493;-74
2023/04/03 07:49:12;;;;;;;2.90;1.40;;;;;;;14.41;30.66;101382.91;103706;279;38217;-74
2023/04/03 07:51:46;;;;;;;3.10;1.90;;;;;;;14.61;30.00;101381.33;103524;281;38558;-76
2023/04/03 07:54:21;;;;;;;2.10;1.40;;;;;;;14.74;30.53;101385.38;103686;279;38356;-74
2023/04/03 07:56:56;;;;;;;2.30;1.30;;;;;;;15.03;29.54;101381.42;103696;279;38260;-73
2023/04/03 07:59:31;;;;;;;2.60;1.40;;;;;;;15.34;29.11;101381.03;103663;279;38754;-75
2023/04/03 08:02:05;;;;;;;3.80;1.50;;;;;;;15.66;27.89;101376.16;103708;279;38768;-75
2023/04/03 08:04:40;;;;;;;2.10;1.50;;;;;;;16.16;28.52;101375.19;103670;279;38354;-72
2023/04/03 08:07:14;;;;;;;2.60;1.80;;;;;;;16.75;27.63;101375.47;103528;279;39878;-73
2023/04/03 08:09:50;;;;;;;2.50;1.60;;;;;;;17.06;27.12;101372.58;103629;279;38501;-70
2023/04/03 08:12:25;;;;;;;2.40;1.20;;;;;;;17.00;26.26;101377.27;103683;279;38756;-71
2023/04/03 08:14:59;;;;;;;2.00;1.50;;;;;;;17.01;26.19;101380.21;103685;279;38899;-70
2023/04/03 08:17:33;;;;;;;2.60;1.10;;;;;;;17.33;25.82;101379.86;103666;279;39412;-74
2023/04/03 08:20:09;;;;;;;2.20;1.50;;;;;;;17.36;24.88;101380.07;103649;279;39623;-73
2023/04/03 08:22:43;;;;;;;1.70;1.20;;;;;;;17.33;25.94;101383.23;103724;279;38293;-74
2023/04/03 08:25:18;;;;;;;3.80;1.40;;;;;;;17.25;25.52;101384.15;103675;279;39461;-74
2023/04/03 08:27:52;;;;;;;3.70;1.40;;;;;;;17.28;25.95;101380.11;103667;279;39413;-75
2023/04/03 08:30:26;;;;;;;2.70;1.20;;;;;;;17.42;24.44;101387.01;103679;279;39065;-73
2023/04/03 08:33:02;;;;;;;2.90;1.60;;;;;;;17.43;24.65;101381.49;103703;268;38596;-74
2023/04/03 08:35:41;;;;;;;2.20;1.30;;;;;;;17.76;24.77;101380.31;103694;279;38921;-72
2023/04/03 08:38:15;;;;;;;2.10;1.20;;;;;;;17.95;24.27;101380.95;103688;279;38362;-77
2023/04/03 08:40:52;;;;;;;1.60;1.10;;;;;;;17.96;24.83;101385.15;103697;279;38413;-74
2023/04/03 08:43:35;;;;;;;1.90;1.40;;;;;;;18.11;23.90;101386.62;103660;279;39399;-72
2023/04/03 08:46:12;;;;;;;2.60;1.50;;;;;;;18.19;24.51;101381.48;103656;279;39435;-73
2023/04/03 08:48:46;;;;;;;2.50;1.30;;;;;;;18.50;24.09;101385.42;103660;279;38256;-74
2023/04/03 08:51:21;;;;;;;1.30;1.20;;;;;;;18.94;23.53;101378.73;102927;279;890646;-77
2023/04/03 08:53:59;;;;;;;2.30;1.20;;;;;;;18.91;23.38;101382.59;103713;279;38287;-77
2023/04/03 08:56:34;;;;;;;2.40;1.40;;;;;;;18.77;22.38;101378.80;103519;269;39873;-75
2023/04/03 08:59:11;;;;;;;1.50;1.00;;;;;;;18.69;22.95;101386.67;103641;279;39629;-77
2023/04/03 09:01:45;;;;;;;1.80;1.10;;;;;;;19.09;23.54;101379.79;103719;279;38499;-75
2023/04/03 09:04:20;;;;;;;2.00;1.20;;;;;;;19.16;21.77;101387.56;103658;279;39939;-76
2023/04/03 09:06:58;;;;;;;1.70;1.00;;;;;;;18.91;20.90;101393.38;103665;279;38513;-75
2023/04/03 09:09:38;;;;;;;1.40;1.00;;;;;;;18.69;21.77;101391.40;103647;279;38238;-74
2023/04/03 09:12:19;;;;;;;2.00;1.10;;;;;;;18.89;20.75;101380.24;103680;279;39477;-75
2023/04/03 09:15:01;;;;;;;2.20;1.90;;;;;;;18.80;20.67;101389.60;103705;279;38298;-75
2023/04/03 09:17:47;;;;;;;7.50;6.20;;;;;;;18.61;21.22;101391.86;103643;279;38240;-77
2023/04/03 09:20:28;;;;;;;6.80;6.10;;;;;;;18.21;19.75;101388.16;103654;279;39413;-75
2023/04/03 09:23:03;;;;;;;12.20;11.10;;;;;;;17.44;21.06;101388.32;103687;279;38513;-75
2023/04/03 09:25:38;;;;;;;11.80;10.60;;;;;;;17.17;21.38;101396.33;103521;279;38967;-75
2023/04/03 09:28:12;;;;;;;3.40;1.50;;;;;;;16.94;20.87;101396.04;103695;279;38481;-77
2023/04/03 09:30:47;;;;;;;2.00;1.40;;;;;;;17.17;22.15;101392.84;103676;279;38289;-75
2023/04/03 09:33:24;;;;;;;1.60;1.00;;;;;;;17.46;21.70;101389.60;103544;279;39559;-75
2023/04/03 09:35:57;;;;;;;1.10;1.00;;;;;;;17.64;21.26;101388.88;103120;280;697169;-75
2023/04/03 09:38:33;;;;;;;2.40;0.80;;;;;;;17.72;20.75;101396.45;103681;279;38545;-75
2023/04/03 09:41:17;;;;;;;1.70;0.80;;;;;;;17.48;20.76;101402.04;103516;279;38365;-75
2023/04/03 09:43:57;;;;;;;2.20;0.80;;;;;;;17.10;20.71;101409.95;103697;279;39276;-74
2023/04/03 09:46:34;;;;;;;2.20;0.90;;;;;;;16.57;21.40;101393.90;103649;279;38850;-76
2023/04/03 09:49:11;;;;;;;3.30;2.10;;;;;;;16.43;22.06;101391.23;103689;279;38487;-74
2023/04/03 09:51:46;;;;;;;3.50;1.50;;;;;;;15.91;22.23;101396.03;103485;280;39476;-75
2023/04/03 09:54:40;;;;;;;5.50;1.50;;;;;;;15.51;22.45;101397.01;103701;279;38324;-75
2023/04/03 09:57:16;;;;;;;2.40;1.40;;;;;;;14.98;23.04;101394.46;103637;279;38247;-73
2023/04/03 10:00:00;;;;;;;3.10;1.20;;;;;;;14.48;24.38;101402.35;103634;279;39422;-72
2023/04/03 10:02:40;;;;;;;1.70;0.90;;;;;;;13.63;25.00;101405.92;103637;279;38270;-76
2023/04/03 10:05:34;;;;;;;2.10;1.60;;;;;;;13.01;25.65;101404.73;103682;279;39960;-73
2023/04/03 10:08:23;;;;;;;6.90;6.40;;;;;;;12.51;26.26;101407.00;103694;279;38622;-76
2023/04/03 10:11:11;;;;;;;;;;;;;;;11.72;26.10;101415.98;103698;279;39419;-73
2023/04/03 10:13:59;;;;;;;4.70;1.20;;;;;;;11.02;26.16;101413.69;103664;279;39420;-74
2023/04/03 10:16:39;;;;;;;1.50;0.90;;;;;;;10.91;27.12;101411.14;103666;279;39169;-74
2023/04/03 10:19:31;;;;;;;3.70;1.70;;;;;;;10.86;28.34;101417.17;103689;279;38267;-75
2023/04/03 10:22:09;;;;;;;3.20;1.50;;;;;;;10.48;28.88;101419.05;103676;279;38303;-73
2023/04/03 10:24:52;;;;;;;12.80;8.90;;;;;;;9.97;28.48;101423.16;103688;279;38492;-75
2023/04/03 10:27:36;;;;;;;50.60;30.40;;;;;;;9.45;28.77;101425.48;103709;279;39674;-72
2023/04/03 10:30:23;;;;;;;5.90;4.10;;;;;;;9.39;29.87;101414.77;103668;279;39921;-73
2023/04/03 10:33:10;;;;;;;2.40;1.40;;;;;;;9.60;29.93;101411.29;103696;279;38278;-74
2023/04/03 10:35:55;;;;;;;1.70;1.10;;;;;;;9.54;29.62;101422.54;103688;279;38956;-73
2023/04/03 10:38:38;;;;;;;1.70;1.00;;;;;;;9.19;30.19;101420.50;103708;279;38238;-73
2023/04/03 10:41:16;;;;;;;2.50;1.00;;;;;;;8.77;30.53;101417.10;103663;279;40495;-73
2023/04/03 10:44:00;;;;;;;2.00;1.10;;;;;;;8.45;30.72;101420.48;103694;279;38747;-72
2023/04/03 10:46:38;;;;;;;1.70;1.00;;;;;;;8.34;31.17;101414.85;103655;279;39580;-73
2023/04/03 10:49:23;;;;;;;1.50;0.90;;;;;;;8.29;30.61;101413.00;103676;279;39646;-73
2023/04/03 10:52:04;;;;;;;1.80;0.90;;;;;;;8.33;31.64;101410.17;103678;279;38346;-74
2023/04/03 10:54:39;;;;;;;2.10;1.20;;;;;;;8.50;31.90;101408.25;103665;279;38511;-73
2023/04/03 10:57:14;;;;;;;3.20;1.80;;;;;;;8.63;31.20;101406.50;103666;279;38263;-75
2023/04/03 10:59:48;;;;;;;1.70;1.00;;;;;;;8.62;30.28;101402.35;103629;279;38859;-75
2023/04/03 11:02:26;;;;;;;3.40;1.00;;;;;;;8.56;31.00;101404.00;103654;279;38818;-76
2023/04/03 11:05:04;;;;;;;2.30;1.20;;;;;;;8.50;31.71;101405.13;103672;279;38241;-72
2023/04/03 11:07:42;;;;;;;2.70;2.50;;;;;;;8.31;31.49;101410.38;103654;279;39636;-71
2023/04/03 11:10:21;;;;;;;8.20;7.40;;;;;;;8.07;31.39;101402.13;103710;279;38259;-72
2023/04/03 11:12:57;;;;;;;3.80;1.90;;;;;;;7.87;31.85;101410.16;103700;279;38471;-73
2023/04/03 11:15:32;;;;;;;2.70;1.00;;;;;;;7.63;31.35;101411.78;103687;279;38265;-73
2023/04/03 11:18:09;;;;;;;1.70;0.90;;;;;;;7.64;32.33;101403.27;103702;279;38678;-72
2023/04/03 11:20:46;;;;;;;1.40;0.80;;;;;;;7.78;31.07;101402.09;103672;279;38254;-72
2023/04/03 11:23:22;;;;;;;1.80;0.80;;;;;;;7.74;30.70;101403.33;103645;279;39642;-73
2023/04/03 11:26:00;;;;;;;3.00;0.80;;;;;;;7.71;30.93;101400.42;103683;279;38258;-73
2023/04/03 11:28:34;;;;;;;3.50;0.80;;;;;;;7.60;31.70;101388.02;103649;279;38512;-72
2023/04/03 11:31:17;;;;;;;3.70;1.10;;;;;;;7.67;32.22;101388.64;103682;279;38323;-72
2023/04/03 11:33:59;;;;;;;3.90;1.20;;;;;;;7.64;31.59;101384.52;103683;279;38502;-71
2023/04/03 11:36:34;;;;;;;1.60;1.10;;;;;;;7.51;32.06;101388.97;103549;279;172661;-73
2023/04/03 11:39:16;;;;;;;2.60;1.40;;;;;;;7.44;32.56;101389.91;103652;279;39912;-73
2023/04/03 11:41:50;;;;;;;4.30;3.20;;;;;;;7.50;33.25;101386.38;103668;279;38324;-72
2023/04/03 11:44:37;;;;;;;5.50;4.50;;;;;;;7.50;32.66;101386.38;103647;279;38564;-72
2023/04/03 11:47:12;;;;;;;3.60;1.50;;;;;;;7.46;32.77;101379.63;103666;279;39953;-72
2023/04/03 11:50:02;;;;;;;5.90;1.10;;;;;;;7.56;33.09;101374.50;103662;279;38278;-72
2023/04/03 11:53:03;;;;;;;4.60;1.20;;;;;;;7.50;32.71;101380.64;103688;279;38564;-72
2023/04/03 11:55:59;;;;;;;1.90;0.70;;;;;;;7.37;32.79;101376.42;103643;278;39650;-73
2023/04/03 11:58:36;;;;;;;1.00;0.80;;;;;;;7.29;33.44;101375.80;103532;279;175413;-74
2023/04/03 12:01:12;;;;;;;1.50;0.80;;;;;;;7.17;33.16;101378.67;103696;279;39439;-73
2023/04/03 12:04:13;;;;;;;2.80;1.20;;;;;;;7.05;33.01;101386.39;103501;279;38574;-73
2023/04/03 12:07:08;;;;;;;14.60;10.50;;;;;;;6.90;32.80;101383.39;103543;279;38255;-74
2023/04/03 12:10:18;;;;;;;4.50;4.10;;;;;;;6.86;33.18;101373.87;103636;279;38544;-72